sensor_id;sensor_type;location;lat;lon;timestamp;temperature;humidity
9057;DHT22;4563;54.756;9.400;2024-02-16T00:02:05;14.20;91.60
9057;DHT22;4563;54.756;9.400;2024-02-16T00:04:32;14.20;91.60
9057;DHT22;4563;54.756;9.400;2024-02-16T00:06:59;14.20;91.60
9057;DHT22;4563;54.756;9.400;2024-02-16T00:09:26;14.20;91.60
9057;DHT22;4563;54.756;9.400;2024-02-16T00:11:55;14.20;91.60
9057;DHT22;4563;54.756;9.400;2024-02-16T00:14:21;14.20;91.60
9057;DHT22;4563;54.756;9.400;2024-02-16T00:16:48;14.20;91.60
9057;DHT22;4563;54.756;9.400;2024-02-16T00:19:15;14.20;91.60
9057;DHT22;4563;54.756;9.400;2024-02-16T00:21:42;14.20;91.60
9057;DHT22;4563;54.756;9.400;2024-02-16T00:24:09;14.20;91.60
9057;DHT22;4563;54.756;9.400;2024-02-16T00:26:36;14.20;91.60
9057;DHT22;4563;54.756;9.400;2024-02-16T00:29:06;14.20;91.60
9057;DHT22;4563;54.756;9.400;2024-02-16T00:31:36;14.20;91.60
9057;DHT22;4563;54.756;9.400;2024-02-16T00:34:03;14.20;91.60
9057;DHT22;4563;54.756;9.400;2024-02-16T00:36:30;14.20;91.60
9057;DHT22;4563;54.756;9.400;2024-02-16T00:38:59;14.20;91.60
9057;DHT22;4563;54.756;9.400;2024-02-16T00:41:26;14.20;91.60
9057;DHT22;4563;54.756;9.400;2024-02-16T00:43:53;14.20;91.60
9057;DHT22;4563;54.756;9.400;2024-02-16T00:46:21;14.20;91.60
9057;DHT22;4563;54.756;9.400;2024-02-16T00:48:48;14.20;91.60
9057;DHT22;4563;54.756;9.400;2024-02-16T00:51:15;14.20;91.60
9057;DHT22;4563;54.756;9.400;2024-02-16T00:53:42;14.20;91.60
9057;DHT22;4563;54.756;9.400;2024-02-16T00:56:09;14.10;91.50
9057;DHT22;4563;54.756;9.400;2024-02-16T00:58:39;14.10;91.50
9057;DHT22;4563;54.756;9.400;2024-02-16T01:01:06;14.10;91.50
9057;DHT22;4563;54.756;9.400;2024-02-16T01:03:37;14.10;91.50
9057;DHT22;4563;54.756;9.400;2024-02-16T01:06:04;14.10;91.50
9057;DHT22;4563;54.756;9.400;2024-02-16T01:08:31;14.10;91.50
9057;DHT22;4563;54.756;9.400;2024-02-16T01:10:59;14.10;91.50
9057;DHT22;4563;54.756;9.400;2024-02-16T01:13:25;14.10;91.50
9057;DHT22;4563;54.756;9.400;2024-02-16T01:15:52;14.10;91.50
9057;DHT22;4563;54.756;9.400;2024-02-16T01:18:19;14.00;91.40
9057;DHT22;4563;54.756;9.400;2024-02-16T01:20:47;14.00;91.50
9057;DHT22;4563;54.756;9.400;2024-02-16T01:23:14;14.00;91.40
9057;DHT22;4563;54.756;9.400;2024-02-16T01:25:41;14.00;91.40
9057;DHT22;4563;54.756;9.400;2024-02-16T01:28:08;14.00;91.40
9057;DHT22;4563;54.756;9.400;2024-02-16T01:30:37;14.00;91.40
9057;DHT22;4563;54.756;9.400;2024-02-16T01:33:04;14.00;91.50
9057;DHT22;4563;54.756;9.400;2024-02-16T01:35:31;13.90;91.40
9057;DHT22;4563;54.756;9.400;2024-02-16T01:37:59;13.90;91.40
9057;DHT22;4563;54.756;9.400;2024-02-16T01:40:27;13.90;91.40
9057;DHT22;4563;54.756;9.400;2024-02-16T01:42:54;13.90;91.40
9057;DHT22;4563;54.756;9.400;2024-02-16T01:45:20;13.90;91.40
9057;DHT22;4563;54.756;9.400;2024-02-16T01:47:48;13.90;91.40
9057;DHT22;4563;54.756;9.400;2024-02-16T01:50:17;13.90;91.40
9057;DHT22;4563;54.756;9.400;2024-02-16T01:52:45;13.90;91.40
9057;DHT22;4563;54.756;9.400;2024-02-16T01:55:14;13.90;91.40
9057;DHT22;4563;54.756;9.400;2024-02-16T01:57:43;13.90;91.40
9057;DHT22;4563;54.756;9.400;2024-02-16T02:00:12;13.90;91.40
9057;DHT22;4563;54.756;9.400;2024-02-16T02:02:40;13.80;91.40
9057;DHT22;4563;54.756;9.400;2024-02-16T02:05:09;13.80;91.40
9057;DHT22;4563;54.756;9.400;2024-02-16T02:07:37;13.80;91.40
9057;DHT22;4563;54.756;9.400;2024-02-16T02:10:04;13.90;91.40
9057;DHT22;4563;54.756;9.400;2024-02-16T02:12:36;13.80;91.40
9057;DHT22;4563;54.756;9.400;2024-02-16T02:15:03;13.80;91.40
9057;DHT22;4563;54.756;9.400;2024-02-16T02:17:30;13.80;91.40
9057;DHT22;4563;54.756;9.400;2024-02-16T02:19:57;13.80;91.40
9057;DHT22;4563;54.756;9.400;2024-02-16T02:22:25;13.80;91.40
9057;DHT22;4563;54.756;9.400;2024-02-16T02:24:53;13.80;91.40
9057;DHT22;4563;54.756;9.400;2024-02-16T02:27:21;13.80;91.40
9057;DHT22;4563;54.756;9.400;2024-02-16T02:29:48;13.70;91.30
9057;DHT22;4563;54.756;9.400;2024-02-16T02:32:15;13.70;91.30
9057;DHT22;4563;54.756;9.400;2024-02-16T02:34:42;13.70;91.30
9057;DHT22;4563;54.756;9.400;2024-02-16T02:37:09;13.70;91.30
9057;DHT22;4563;54.756;9.400;2024-02-16T02:39:37;13.70;91.30
9057;DHT22;4563;54.756;9.400;2024-02-16T02:42:04;13.70;91.30
9057;DHT22;4563;54.756;9.400;2024-02-16T02:44:31;13.70;91.30
9057;DHT22;4563;54.756;9.400;2024-02-16T02:46:58;13.70;91.30
9057;DHT22;4563;54.756;9.400;2024-02-16T02:49:24;13.70;91.30
9057;DHT22;4563;54.756;9.400;2024-02-16T02:51:51;13.60;91.30
9057;DHT22;4563;54.756;9.400;2024-02-16T02:54:18;13.60;91.30
9057;DHT22;4563;54.756;9.400;2024-02-16T02:56:46;13.60;91.30
9057;DHT22;4563;54.756;9.400;2024-02-16T02:59:13;13.60;91.30
9057;DHT22;4563;54.756;9.400;2024-02-16T03:01:40;13.60;91.30
9057;DHT22;4563;54.756;9.400;2024-02-16T03:04:07;13.60;91.20
9057;DHT22;4563;54.756;9.400;2024-02-16T03:06:34;13.60;91.20
9057;DHT22;4563;54.756;9.400;2024-02-16T03:09:01;13.50;91.20
9057;DHT22;4563;54.756;9.400;2024-02-16T03:11:28;13.50;91.20
9057;DHT22;4563;54.756;9.400;2024-02-16T03:13:56;13.50;91.20
9057;DHT22;4563;54.756;9.400;2024-02-16T03:16:23;13.50;91.20
9057;DHT22;4563;54.756;9.400;2024-02-16T03:18:50;13.50;91.30
9057;DHT22;4563;54.756;9.400;2024-02-16T03:21:16;13.50;91.20
9057;DHT22;4563;54.756;9.400;2024-02-16T03:23:43;13.50;91.20
9057;DHT22;4563;54.756;9.400;2024-02-16T03:26:17;13.50;91.20
9057;DHT22;4563;54.756;9.400;2024-02-16T03:28:44;13.50;91.20
9057;DHT22;4563;54.756;9.400;2024-02-16T03:31:18;13.50;91.20
9057;DHT22;4563;54.756;9.400;2024-02-16T03:33:45;13.50;91.20
9057;DHT22;4563;54.756;9.400;2024-02-16T03:36:12;13.40;91.20
9057;DHT22;4563;54.756;9.400;2024-02-16T03:38:41;13.40;91.20
9057;DHT22;4563;54.756;9.400;2024-02-16T03:41:09;13.40;91.20
9057;DHT22;4563;54.756;9.400;2024-02-16T03:43:38;13.40;91.20
9057;DHT22;4563;54.756;9.400;2024-02-16T03:46:05;13.40;91.20
9057;DHT22;4563;54.756;9.400;2024-02-16T03:48:33;13.40;91.20
9057;DHT22;4563;54.756;9.400;2024-02-16T03:50:59;13.40;91.20
9057;DHT22;4563;54.756;9.400;2024-02-16T03:53:28;13.40;91.20
9057;DHT22;4563;54.756;9.400;2024-02-16T03:55:55;13.40;91.20
9057;DHT22;4563;54.756;9.400;2024-02-16T03:58:22;13.40;91.20
9057;DHT22;4563;54.756;9.400;2024-02-16T04:00:49;13.40;91.20
9057;DHT22;4563;54.756;9.400;2024-02-16T04:03:16;13.40;91.20
9057;DHT22;4563;54.756;9.400;2024-02-16T04:05:44;13.40;91.20
9057;DHT22;4563;54.756;9.400;2024-02-16T04:08:11;13.30;91.20
9057;DHT22;4563;54.756;9.400;2024-02-16T04:10:38;13.40;91.20
9057;DHT22;4563;54.756;9.400;2024-02-16T04:13:04;13.30;91.10
9057;DHT22;4563;54.756;9.400;2024-02-16T04:15:31;13.30;91.10
9057;DHT22;4563;54.756;9.400;2024-02-16T04:17:58;13.30;91.10
9057;DHT22;4563;54.756;9.400;2024-02-16T04:20:25;13.30;91.20
9057;DHT22;4563;54.756;9.400;2024-02-16T04:22:53;13.30;91.20
9057;DHT22;4563;54.756;9.400;2024-02-16T04:25:19;13.30;91.10
9057;DHT22;4563;54.756;9.400;2024-02-16T04:27:46;13.30;91.20
9057;DHT22;4563;54.756;9.400;2024-02-16T04:30:13;13.20;91.10
9057;DHT22;4563;54.756;9.400;2024-02-16T04:32:40;13.30;91.20
9057;DHT22;4563;54.756;9.400;2024-02-16T04:35:07;13.30;91.30
9057;DHT22;4563;54.756;9.400;2024-02-16T04:37:37;13.20;91.20
9057;DHT22;4563;54.756;9.400;2024-02-16T04:40:06;13.20;91.20
9057;DHT22;4563;54.756;9.400;2024-02-16T04:42:33;13.30;91.20
9057;DHT22;4563;54.756;9.400;2024-02-16T04:45:00;13.20;91.10
9057;DHT22;4563;54.756;9.400;2024-02-16T04:47:28;13.20;91.10
9057;DHT22;4563;54.756;9.400;2024-02-16T04:49:55;13.20;91.10
9057;DHT22;4563;54.756;9.400;2024-02-16T04:52:22;13.20;91.10
9057;DHT22;4563;54.756;9.400;2024-02-16T04:54:49;13.20;91.10
9057;DHT22;4563;54.756;9.400;2024-02-16T04:57:17;13.20;91.10
9057;DHT22;4563;54.756;9.400;2024-02-16T04:59:43;13.20;91.10
9057;DHT22;4563;54.756;9.400;2024-02-16T05:02:10;13.20;91.10
9057;DHT22;4563;54.756;9.400;2024-02-16T05:04:37;13.20;91.10
9057;DHT22;4563;54.756;9.400;2024-02-16T05:07:04;13.20;91.10
9057;DHT22;4563;54.756;9.400;2024-02-16T05:09:32;13.10;91.00
9057;DHT22;4563;54.756;9.400;2024-02-16T05:11:59;13.10;91.00
9057;DHT22;4563;54.756;9.400;2024-02-16T05:14:27;13.10;91.00
9057;DHT22;4563;54.756;9.400;2024-02-16T05:16:53;13.10;91.00
9057;DHT22;4563;54.756;9.400;2024-02-16T05:19:20;13.10;91.00
9057;DHT22;4563;54.756;9.400;2024-02-16T05:21:47;13.10;91.00
9057;DHT22;4563;54.756;9.400;2024-02-16T05:24:14;13.10;91.00
9057;DHT22;4563;54.756;9.400;2024-02-16T05:26:40;13.10;91.00
9057;DHT22;4563;54.756;9.400;2024-02-16T05:29:07;13.10;91.00
9057;DHT22;4563;54.756;9.400;2024-02-16T05:31:35;13.00;90.90
9057;DHT22;4563;54.756;9.400;2024-02-16T05:34:02;13.00;90.90
9057;DHT22;4563;54.756;9.400;2024-02-16T05:36:29;13.00;90.90
9057;DHT22;4563;54.756;9.400;2024-02-16T05:39:01;13.00;90.90
9057;DHT22;4563;54.756;9.400;2024-02-16T05:41:45;13.00;90.90
9057;DHT22;4563;54.756;9.400;2024-02-16T05:44:12;13.00;90.90
9057;DHT22;4563;54.756;9.400;2024-02-16T05:46:40;12.90;90.90
9057;DHT22;4563;54.756;9.400;2024-02-16T05:49:07;13.00;90.90
9057;DHT22;4563;54.756;9.400;2024-02-16T05:51:35;12.90;90.90
9057;DHT22;4563;54.756;9.400;2024-02-16T05:54:02;12.90;90.90
9057;DHT22;4563;54.756;9.400;2024-02-16T05:56:29;12.90;90.80
9057;DHT22;4563;54.756;9.400;2024-02-16T05:58:59;12.90;90.90
9057;DHT22;4563;54.756;9.400;2024-02-16T06:01:25;12.90;90.90
9057;DHT22;4563;54.756;9.400;2024-02-16T06:03:54;12.90;90.90
9057;DHT22;4563;54.756;9.400;2024-02-16T06:06:21;12.80;90.80
9057;DHT22;4563;54.756;9.400;2024-02-16T06:08:48;12.80;90.90
9057;DHT22;4563;54.756;9.400;2024-02-16T06:11:15;12.80;90.80
9057;DHT22;4563;54.756;9.400;2024-02-16T06:13:42;12.80;90.80
9057;DHT22;4563;54.756;9.400;2024-02-16T06:16:09;12.80;90.80
9057;DHT22;4563;54.756;9.400;2024-02-16T06:18:36;12.80;90.70
9057;DHT22;4563;54.756;9.400;2024-02-16T06:21:04;12.80;90.80
9057;DHT22;4563;54.756;9.400;2024-02-16T06:23:31;12.80;90.80
9057;DHT22;4563;54.756;9.400;2024-02-16T06:25:58;12.80;90.80
9057;DHT22;4563;54.756;9.400;2024-02-16T06:28:24;12.70;90.70
9057;DHT22;4563;54.756;9.400;2024-02-16T06:30:51;12.70;91.10
9057;DHT22;4563;54.756;9.400;2024-02-16T06:33:18;12.70;90.80
9057;DHT22;4563;54.756;9.400;2024-02-16T06:35:45;12.70;90.80
9057;DHT22;4563;54.756;9.400;2024-02-16T06:38:15;12.70;90.80
9057;DHT22;4563;54.756;9.400;2024-02-16T06:40:41;12.70;90.70
9057;DHT22;4563;54.756;9.400;2024-02-16T06:43:08;12.70;90.70
9057;DHT22;4563;54.756;9.400;2024-02-16T06:45:35;12.70;90.80
9057;DHT22;4563;54.756;9.400;2024-02-16T06:48:02;12.60;90.70
9057;DHT22;4563;54.756;9.400;2024-02-16T06:50:29;12.60;90.70
9057;DHT22;4563;54.756;9.400;2024-02-16T06:52:56;12.60;90.70
9057;DHT22;4563;54.756;9.400;2024-02-16T06:55:24;12.60;90.70
9057;DHT22;4563;54.756;9.400;2024-02-16T06:57:50;12.60;90.70
9057;DHT22;4563;54.756;9.400;2024-02-16T07:00:18;12.60;90.70
9057;DHT22;4563;54.756;9.400;2024-02-16T07:02:45;12.60;90.70
9057;DHT22;4563;54.756;9.400;2024-02-16T07:05:12;12.60;90.60
9057;DHT22;4563;54.756;9.400;2024-02-16T07:07:41;12.60;90.60
9057;DHT22;4563;54.756;9.400;2024-02-16T07:10:08;12.60;90.60
9057;DHT22;4563;54.756;9.400;2024-02-16T07:12:40;12.50;90.60
9057;DHT22;4563;54.756;9.400;2024-02-16T07:15:07;12.60;90.60
9057;DHT22;4563;54.756;9.400;2024-02-16T07:17:35;12.50;90.60
9057;DHT22;4563;54.756;9.400;2024-02-16T07:20:02;12.50;90.60
9057;DHT22;4563;54.756;9.400;2024-02-16T07:22:30;12.50;90.60
9057;DHT22;4563;54.756;9.400;2024-02-16T07:24:58;12.50;90.60
9057;DHT22;4563;54.756;9.400;2024-02-16T07:27:25;12.50;90.60
9057;DHT22;4563;54.756;9.400;2024-02-16T07:29:53;12.50;90.50
9057;DHT22;4563;54.756;9.400;2024-02-16T07:32:20;12.50;90.50
9057;DHT22;4563;54.756;9.400;2024-02-16T07:34:47;12.40;90.50
9057;DHT22;4563;54.756;9.400;2024-02-16T07:37:14;12.40;90.50
9057;DHT22;4563;54.756;9.400;2024-02-16T07:39:41;12.40;90.50
9057;DHT22;4563;54.756;9.400;2024-02-16T07:42:08;12.40;90.40
9057;DHT22;4563;54.756;9.400;2024-02-16T07:44:35;12.40;90.40
9057;DHT22;4563;54.756;9.400;2024-02-16T07:47:04;12.40;90.50
9057;DHT22;4563;54.756;9.400;2024-02-16T07:49:31;12.40;90.40
9057;DHT22;4563;54.756;9.400;2024-02-16T07:51:57;12.40;90.40
9057;DHT22;4563;54.756;9.400;2024-02-16T07:54:24;12.40;90.40
9057;DHT22;4563;54.756;9.400;2024-02-16T07:56:51;12.40;90.40
9057;DHT22;4563;54.756;9.400;2024-02-16T07:59:18;12.40;90.40
9057;DHT22;4563;54.756;9.400;2024-02-16T08:01:45;12.40;90.40
9057;DHT22;4563;54.756;9.400;2024-02-16T08:04:13;12.40;90.40
9057;DHT22;4563;54.756;9.400;2024-02-16T08:06:40;12.40;90.40
9057;DHT22;4563;54.756;9.400;2024-02-16T08:09:07;12.40;90.40
9057;DHT22;4563;54.756;9.400;2024-02-16T08:11:34;12.40;90.40
9057;DHT22;4563;54.756;9.400;2024-02-16T08:14:02;12.40;90.40
9057;DHT22;4563;54.756;9.400;2024-02-16T08:16:29;12.40;90.40
9057;DHT22;4563;54.756;9.400;2024-02-16T08:18:56;12.40;90.40
9057;DHT22;4563;54.756;9.400;2024-02-16T08:21:24;12.40;90.40
9057;DHT22;4563;54.756;9.400;2024-02-16T08:23:51;12.40;90.40
9057;DHT22;4563;54.756;9.400;2024-02-16T08:26:18;12.40;90.40
9057;DHT22;4563;54.756;9.400;2024-02-16T08:28:45;12.40;90.40
9057;DHT22;4563;54.756;9.400;2024-02-16T08:31:15;12.40;90.30
9057;DHT22;4563;54.756;9.400;2024-02-16T08:33:43;12.40;90.30
9057;DHT22;4563;54.756;9.400;2024-02-16T08:36:12;12.50;90.40
9057;DHT22;4563;54.756;9.400;2024-02-16T08:38:40;12.50;90.40
9057;DHT22;4563;54.756;9.400;2024-02-16T08:41:07;12.50;90.30
9057;DHT22;4563;54.756;9.400;2024-02-16T08:43:35;12.50;90.40
9057;DHT22;4563;54.756;9.400;2024-02-16T08:46:03;12.50;90.40
9057;DHT22;4563;54.756;9.400;2024-02-16T08:48:30;12.50;90.40
9057;DHT22;4563;54.756;9.400;2024-02-16T08:50:57;12.50;90.40
9057;DHT22;4563;54.756;9.400;2024-02-16T08:53:23;12.50;90.40
9057;DHT22;4563;54.756;9.400;2024-02-16T08:55:52;12.50;90.40
9057;DHT22;4563;54.756;9.400;2024-02-16T08:58:18;12.50;90.40
9057;DHT22;4563;54.756;9.400;2024-02-16T09:00:49;12.50;90.40
9057;DHT22;4563;54.756;9.400;2024-02-16T09:03:16;12.50;90.40
9057;DHT22;4563;54.756;9.400;2024-02-16T09:05:44;12.50;90.40
9057;DHT22;4563;54.756;9.400;2024-02-16T09:08:13;12.50;90.40
9057;DHT22;4563;54.756;9.400;2024-02-16T09:10:39;12.50;90.40
9057;DHT22;4563;54.756;9.400;2024-02-16T09:13:08;12.60;90.40
9057;DHT22;4563;54.756;9.400;2024-02-16T09:15:34;12.60;90.40
9057;DHT22;4563;54.756;9.400;2024-02-16T09:18:02;12.60;90.40
9057;DHT22;4563;54.756;9.400;2024-02-16T09:20:29;12.60;90.50
9057;DHT22;4563;54.756;9.400;2024-02-16T09:22:56;12.60;90.40
9057;DHT22;4563;54.756;9.400;2024-02-16T09:25:22;12.60;90.40
9057;DHT22;4563;54.756;9.400;2024-02-16T09:27:50;12.70;90.50
9057;DHT22;4563;54.756;9.400;2024-02-16T09:30:18;12.70;90.50
9057;DHT22;4563;54.756;9.400;2024-02-16T09:32:47;12.70;90.50
9057;DHT22;4563;54.756;9.400;2024-02-16T09:35:16;12.80;90.50
9057;DHT22;4563;54.756;9.400;2024-02-16T09:37:43;12.80;90.50
9057;DHT22;4563;54.756;9.400;2024-02-16T09:40:12;12.80;90.50
9057;DHT22;4563;54.756;9.400;2024-02-16T09:42:39;12.80;90.50
9057;DHT22;4563;54.756;9.400;2024-02-16T09:45:07;12.90;90.50
9057;DHT22;4563;54.756;9.400;2024-02-16T09:47:39;12.90;90.60
9057;DHT22;4563;54.756;9.400;2024-02-16T09:50:06;13.00;90.60
9057;DHT22;4563;54.756;9.400;2024-02-16T09:52:35;13.00;90.60
9057;DHT22;4563;54.756;9.400;2024-02-16T09:55:03;13.10;90.60
9057;DHT22;4563;54.756;9.400;2024-02-16T09:57:30;13.10;90.60
9057;DHT22;4563;54.756;9.400;2024-02-16T09:59:56;13.10;90.50
9057;DHT22;4563;54.756;9.400;2024-02-16T10:02:23;13.20;90.60
9057;DHT22;4563;54.756;9.400;2024-02-16T10:04:51;13.20;90.50
9057;DHT22;4563;54.756;9.400;2024-02-16T10:07:30;13.20;90.50
9057;DHT22;4563;54.756;9.400;2024-02-16T10:09:57;13.30;90.40
9057;DHT22;4563;54.756;9.400;2024-02-16T10:12:24;13.30;90.50
9057;DHT22;4563;54.756;9.400;2024-02-16T10:14:54;13.30;90.40
9057;DHT22;4563;54.756;9.400;2024-02-16T10:17:22;13.40;90.60
9057;DHT22;4563;54.756;9.400;2024-02-16T10:19:56;13.40;90.50
9057;DHT22;4563;54.756;9.400;2024-02-16T10:22:23;13.40;90.40
9057;DHT22;4563;54.756;9.400;2024-02-16T10:24:51;13.50;90.50
9057;DHT22;4563;54.756;9.400;2024-02-16T10:27:18;13.50;90.50
9057;DHT22;4563;54.756;9.400;2024-02-16T10:29:47;13.60;90.50
9057;DHT22;4563;54.756;9.400;2024-02-16T10:32:16;13.60;90.50
9057;DHT22;4563;54.756;9.400;2024-02-16T10:34:45;13.70;90.50
9057;DHT22;4563;54.756;9.400;2024-02-16T10:37:15;13.70;90.50
9057;DHT22;4563;54.756;9.400;2024-02-16T10:39:43;13.70;90.40
9057;DHT22;4563;54.756;9.400;2024-02-16T10:42:11;13.70;90.40
9057;DHT22;4563;54.756;9.400;2024-02-16T10:44:39;13.80;90.40
9057;DHT22;4563;54.756;9.400;2024-02-16T10:47:08;13.80;90.30
9057;DHT22;4563;54.756;9.400;2024-02-16T10:49:34;13.90;90.40
9057;DHT22;4563;54.756;9.400;2024-02-16T10:52:04;13.90;90.40
9057;DHT22;4563;54.756;9.400;2024-02-16T10:54:34;13.90;90.30
9057;DHT22;4563;54.756;9.400;2024-02-16T10:57:07;14.00;90.40
9057;DHT22;4563;54.756;9.400;2024-02-16T10:59:40;14.00;90.30
9057;DHT22;4563;54.756;9.400;2024-02-16T11:02:07;14.10;90.30
9057;DHT22;4563;54.756;9.400;2024-02-16T11:04:36;14.10;90.30
9057;DHT22;4563;54.756;9.400;2024-02-16T11:07:11;14.10;90.20
9057;DHT22;4563;54.756;9.400;2024-02-16T11:09:40;14.10;90.10
9057;DHT22;4563;54.756;9.400;2024-02-16T11:12:08;14.20;90.10
9057;DHT22;4563;54.756;9.400;2024-02-16T11:14:35;14.20;90.10
9057;DHT22;4563;54.756;9.400;2024-02-16T11:17:07;14.20;90.00
9057;DHT22;4563;54.756;9.400;2024-02-16T11:19:35;14.20;90.10
9057;DHT22;4563;54.756;9.400;2024-02-16T11:22:03;14.30;90.00
9057;DHT22;4563;54.756;9.400;2024-02-16T11:24:33;14.30;90.00
9057;DHT22;4563;54.756;9.400;2024-02-16T11:27:05;14.30;89.70
9057;DHT22;4563;54.756;9.400;2024-02-16T11:29:33;14.30;89.50
9057;DHT22;4563;54.756;9.400;2024-02-16T11:32:01;14.30;89.30
9057;DHT22;4563;54.756;9.400;2024-02-16T11:34:28;14.40;89.70
9057;DHT22;4563;54.756;9.400;2024-02-16T11:36:56;14.40;89.40
9057;DHT22;4563;54.756;9.400;2024-02-16T11:39:24;14.50;89.20
9057;DHT22;4563;54.756;9.400;2024-02-16T11:41:59;14.50;89.00
9057;DHT22;4563;54.756;9.400;2024-02-16T11:44:29;14.50;88.80
9057;DHT22;4563;54.756;9.400;2024-02-16T11:46:56;14.60;88.70
9057;DHT22;4563;54.756;9.400;2024-02-16T11:49:22;14.60;88.40
9057;DHT22;4563;54.756;9.400;2024-02-16T11:51:49;14.60;88.20
9057;DHT22;4563;54.756;9.400;2024-02-16T11:54:16;14.60;88.10
9057;DHT22;4563;54.756;9.400;2024-02-16T11:56:43;14.70;88.10
9057;DHT22;4563;54.756;9.400;2024-02-16T11:59:12;14.70;87.90
9057;DHT22;4563;54.756;9.400;2024-02-16T12:01:53;14.70;87.90
9057;DHT22;4563;54.756;9.400;2024-02-16T12:04:21;14.70;87.80
9057;DHT22;4563;54.756;9.400;2024-02-16T12:06:51;14.70;87.60
9057;DHT22;4563;54.756;9.400;2024-02-16T12:09:18;14.70;87.50
9057;DHT22;4563;54.756;9.400;2024-02-16T12:11:47;14.70;87.30
9057;DHT22;4563;54.756;9.400;2024-02-16T12:14:15;14.80;87.30
9057;DHT22;4563;54.756;9.400;2024-02-16T12:16:41;14.70;87.10
9057;DHT22;4563;54.756;9.400;2024-02-16T12:19:11;14.70;87.00
9057;DHT22;4563;54.756;9.400;2024-02-16T12:21:38;14.70;87.10
9057;DHT22;4563;54.756;9.400;2024-02-16T12:24:06;14.80;87.10
9057;DHT22;4563;54.756;9.400;2024-02-16T12:26:33;14.80;87.10
9057;DHT22;4563;54.756;9.400;2024-02-16T12:28:59;14.80;87.70
9057;DHT22;4563;54.756;9.400;2024-02-16T12:31:26;14.80;87.10
9057;DHT22;4563;54.756;9.400;2024-02-16T12:33:53;14.80;86.90
9057;DHT22;4563;54.756;9.400;2024-02-16T12:36:21;14.80;86.80
9057;DHT22;4563;54.756;9.400;2024-02-16T12:38:49;14.80;86.80
9057;DHT22;4563;54.756;9.400;2024-02-16T12:41:16;14.80;86.70
9057;DHT22;4563;54.756;9.400;2024-02-16T12:43:42;14.80;86.70
9057;DHT22;4563;54.756;9.400;2024-02-16T12:46:09;14.80;86.70
9057;DHT22;4563;54.756;9.400;2024-02-16T12:48:36;14.80;86.60
9057;DHT22;4563;54.756;9.400;2024-02-16T12:51:03;14.80;86.50
9057;DHT22;4563;54.756;9.400;2024-02-16T12:53:32;14.80;86.60
9057;DHT22;4563;54.756;9.400;2024-02-16T12:56:06;14.80;86.60
9057;DHT22;4563;54.756;9.400;2024-02-16T12:58:33;14.80;86.40
9057;DHT22;4563;54.756;9.400;2024-02-16T13:01:00;14.80;86.20
9057;DHT22;4563;54.756;9.400;2024-02-16T13:03:28;14.80;86.20
9057;DHT22;4563;54.756;9.400;2024-02-16T13:05:55;14.80;86.20
9057;DHT22;4563;54.756;9.400;2024-02-16T13:08:22;14.80;86.20
9057;DHT22;4563;54.756;9.400;2024-02-16T13:10:50;14.70;86.00
9057;DHT22;4563;54.756;9.400;2024-02-16T13:13:17;14.70;86.00
9057;DHT22;4563;54.756;9.400;2024-02-16T13:15:44;14.70;85.90
9057;DHT22;4563;54.756;9.400;2024-02-16T13:18:12;14.70;86.00
9057;DHT22;4563;54.756;9.400;2024-02-16T13:20:39;14.70;85.80
9057;DHT22;4563;54.756;9.400;2024-02-16T13:23:06;14.60;85.80
9057;DHT22;4563;54.756;9.400;2024-02-16T13:25:33;14.70;85.80
9057;DHT22;4563;54.756;9.400;2024-02-16T13:28:01;14.60;85.70
9057;DHT22;4563;54.756;9.400;2024-02-16T13:30:28;14.60;85.70
9057;DHT22;4563;54.756;9.400;2024-02-16T13:32:55;14.60;85.70
9057;DHT22;4563;54.756;9.400;2024-02-16T13:35:21;14.60;85.70
9057;DHT22;4563;54.756;9.400;2024-02-16T13:37:49;14.50;85.60
9057;DHT22;4563;54.756;9.400;2024-02-16T13:40:15;14.50;85.60
9057;DHT22;4563;54.756;9.400;2024-02-16T13:42:43;14.50;85.70
9057;DHT22;4563;54.756;9.400;2024-02-16T13:45:12;14.50;85.60
9057;DHT22;4563;54.756;9.400;2024-02-16T13:47:38;14.50;85.70
9057;DHT22;4563;54.756;9.400;2024-02-16T13:50:06;14.40;85.50
9057;DHT22;4563;54.756;9.400;2024-02-16T13:52:33;14.40;85.60
9057;DHT22;4563;54.756;9.400;2024-02-16T13:55:00;14.40;85.50
9057;DHT22;4563;54.756;9.400;2024-02-16T13:57:27;14.30;85.40
9057;DHT22;4563;54.756;9.400;2024-02-16T13:59:54;14.30;85.40
9057;DHT22;4563;54.756;9.400;2024-02-16T14:02:22;14.30;85.40
9057;DHT22;4563;54.756;9.400;2024-02-16T14:04:49;14.20;85.30
9057;DHT22;4563;54.756;9.400;2024-02-16T14:07:16;14.20;85.30
9057;DHT22;4563;54.756;9.400;2024-02-16T14:09:43;14.10;85.20
9057;DHT22;4563;54.756;9.400;2024-02-16T14:12:10;14.10;85.20
9057;DHT22;4563;54.756;9.400;2024-02-16T14:14:37;14.10;85.20
9057;DHT22;4563;54.756;9.400;2024-02-16T14:17:04;14.00;85.20
9057;DHT22;4563;54.756;9.400;2024-02-16T14:19:32;14.00;85.10
9057;DHT22;4563;54.756;9.400;2024-02-16T14:22:02;13.90;85.20
9057;DHT22;4563;54.756;9.400;2024-02-16T14:24:31;13.90;85.30
9057;DHT22;4563;54.756;9.400;2024-02-16T14:26:58;13.80;85.20
9057;DHT22;4563;54.756;9.400;2024-02-16T14:29:25;13.80;85.20
9057;DHT22;4563;54.756;9.400;2024-02-16T14:31:51;13.70;85.20
9057;DHT22;4563;54.756;9.400;2024-02-16T14:34:18;13.70;85.40
9057;DHT22;4563;54.756;9.400;2024-02-16T14:36:46;13.60;85.30
9057;DHT22;4563;54.756;9.400;2024-02-16T14:39:13;13.60;85.20
9057;DHT22;4563;54.756;9.400;2024-02-16T14:41:42;13.50;85.50
9057;DHT22;4563;54.756;9.400;2024-02-16T14:44:09;13.50;85.10
9057;DHT22;4563;54.756;9.400;2024-02-16T14:46:36;13.40;85.10
9057;DHT22;4563;54.756;9.400;2024-02-16T14:49:03;13.40;85.00
9057;DHT22;4563;54.756;9.400;2024-02-16T14:51:33;13.30;85.00
9057;DHT22;4563;54.756;9.400;2024-02-16T14:54:02;13.30;85.00
9057;DHT22;4563;54.756;9.400;2024-02-16T14:56:29;13.20;85.00
9057;DHT22;4563;54.756;9.400;2024-02-16T14:58:56;13.20;85.00
9057;DHT22;4563;54.756;9.400;2024-02-16T15:01:23;13.20;85.00
9057;DHT22;4563;54.756;9.400;2024-02-16T15:03:49;13.10;84.90
9057;DHT22;4563;54.756;9.400;2024-02-16T15:06:16;13.00;84.90
9057;DHT22;4563;54.756;9.400;2024-02-16T15:08:43;13.00;85.00
9057;DHT22;4563;54.756;9.400;2024-02-16T15:11:14;13.00;85.00
9057;DHT22;4563;54.756;9.400;2024-02-16T15:13:42;13.00;85.10
9057;DHT22;4563;54.756;9.400;2024-02-16T15:16:09;12.90;85.00
9057;DHT22;4563;54.756;9.400;2024-02-16T15:18:36;12.90;85.00
9057;DHT22;4563;54.756;9.400;2024-02-16T15:21:04;12.90;85.10
9057;DHT22;4563;54.756;9.400;2024-02-16T15:23:31;12.80;85.10
9057;DHT22;4563;54.756;9.400;2024-02-16T15:25:58;12.80;85.10
9057;DHT22;4563;54.756;9.400;2024-02-16T15:28:29;12.80;85.20
9057;DHT22;4563;54.756;9.400;2024-02-16T15:30:56;12.80;85.30
9057;DHT22;4563;54.756;9.400;2024-02-16T15:33:23;12.80;85.30
9057;DHT22;4563;54.756;9.400;2024-02-16T15:35:50;12.70;85.30
9057;DHT22;4563;54.756;9.400;2024-02-16T15:38:17;12.70;85.40
9057;DHT22;4563;54.756;9.400;2024-02-16T15:40:44;12.70;85.50
9057;DHT22;4563;54.756;9.400;2024-02-16T15:43:10;12.70;85.60
9057;DHT22;4563;54.756;9.400;2024-02-16T15:45:39;12.60;85.60
9057;DHT22;4563;54.756;9.400;2024-02-16T15:48:07;12.60;85.60
9057;DHT22;4563;54.756;9.400;2024-02-16T15:50:35;12.60;85.70
9057;DHT22;4563;54.756;9.400;2024-02-16T15:53:02;12.60;85.80
9057;DHT22;4563;54.756;9.400;2024-02-16T15:55:29;12.60;85.80
9057;DHT22;4563;54.756;9.400;2024-02-16T15:57:56;12.60;85.80
9057;DHT22;4563;54.756;9.400;2024-02-16T16:00:23;12.60;86.00
9057;DHT22;4563;54.756;9.400;2024-02-16T16:02:52;12.60;86.00
9057;DHT22;4563;54.756;9.400;2024-02-16T16:05:19;12.50;85.90